Time;durP1;ratioP1;P1;durP2;ratioP2;P2;SDS_P1;SDS_P2;PMS_P1;PMS_P2;Temp;Humidity;BMP_temperature;BMP_pressure;BME280_temperature;BME280_humidity;BME280_pressure;Samples;Min_cycle;Max_cycle;Signal;HPM_P1;HPM_P2
2021/12/07 00:01:25;;;;;;;22.90;16.08;;;2.80;99.90;;;;;;5156584;27;20123;-74
2021/12/07 00:03:51;;;;;;;24.27;17.00;;;2.70;99.90;;;;;;5156411;27;20053;-73
2021/12/07 00:06:17;;;;;;;23.92;15.73;;;2.70;99.90;;;;;;5156664;27;20070;-74
2021/12/07 00:08:44;;;;;;;24.13;16.13;;;2.70;99.90;;;;;;5156921;27;20080;-75
2021/12/07 00:11:11;;;;;;;24.52;16.20;;;2.70;99.90;;;;;;5155447;27;20126;-74
2021/12/07 00:13:39;;;;;;;23.73;16.95;;;2.60;99.90;;;;;;5138637;27;20125;-75
2021/12/07 00:16:07;;;;;;;23.75;15.88;;;2.60;99.90;;;;;;5155891;27;20043;-75
2021/12/07 00:18:33;;;;;;;24.25;16.30;;;2.60;99.90;;;;;;5156757;27;20095;-74
2021/12/07 00:20:59;;;;;;;25.10;16.55;;;2.50;99.90;;;;;;5155773;27;20121;-74
2021/12/07 00:23:25;;;;;;;24.90;16.52;;;2.50;99.90;;;;;;5156635;27;20099;-75
2021/12/07 00:25:51;;;;;;;24.45;16.33;;;2.50;99.90;;;;;;5155173;27;20454;-74
2021/12/07 00:28:20;;;;;;;24.92;16.33;;;2.40;99.90;;;;;;5156432;27;20117;-74
2021/12/07 00:30:48;;;;;;;24.90;15.27;;;2.30;99.90;;;;;;5137716;27;20048;-75
2021/12/07 00:35:40;;;;;;;25.88;16.35;;;2.30;99.90;;;;;;5155511;27;20095;-74
2021/12/07 00:38:10;;;;;;;25.45;16.83;;;2.20;99.90;;;;;;5155352;27;20046;-74
2021/12/07 00:40:38;;;;;;;27.33;17.30;;;2.10;99.90;;;;;;5155990;27;20050;-74
2021/12/07 00:43:04;;;;;;;25.38;16.65;;;2.10;99.90;;;;;;5155364;27;20082;-74
2021/12/07 00:45:32;;;;;;;26.50;16.88;;;2.00;99.90;;;;;;5155816;27;20080;-74
2021/12/07 00:47:58;;;;;;;26.52;16.92;;;2.00;99.90;;;;;;5154959;27;20086;-73
2021/12/07 00:50:26;;;;;;;26.70;16.80;;;2.00;99.90;;;;;;5156316;27;20054;-74
2021/12/07 00:52:52;;;;;;;25.88;17.40;;;1.90;99.90;;;;;;5154922;27;20487;-74
2021/12/07 00:55:23;;;;;;;26.45;17.63;;;1.90;99.90;;;;;;5137111;27;20035;-74
2021/12/07 00:57:52;;;;;;;27.17;17.27;;;1.90;99.90;;;;;;5155716;27;20043;-75
2021/12/07 01:00:19;;;;;;;31.23;18.17;;;1.80;99.90;;;;;;5155438;27;20046;-74
2021/12/07 01:02:46;;;;;;;30.95;18.60;;;1.80;99.90;;;;;;5155393;27;20524;-74
2021/12/07 01:05:22;;;;;;;31.08;18.77;;;1.80;99.90;;;;;;5155288;27;20039;-74
2021/12/07 01:26:44;;;;;;;26.10;16.95;;;1.70;99.90;;;;;;5155529;27;20395;-75
2021/12/07 01:29:10;;;;;;;29.92;18.45;;;1.70;99.90;;;;;;5136184;27;20470;-75
2021/12/07 01:31:51;;;;;;;30.80;19.13;;;1.70;99.90;;;;;;5137048;27;20043;-75
2021/12/07 01:43:22;;;;;;;29.38;18.80;;;1.50;99.90;;;;;;5070393;28;20463;-74
2021/12/07 01:45:58;;;;;;;;;;;1.50;99.90;;;;;;5050605;28;20055;-75
2021/12/07 01:51:41;;;;;;;;;;;1.50;99.90;;;;;;5154956;27;20058;-74
2021/12/07 01:59:36;;;;;;;31.52;18.38;;;1.50;99.90;;;;;;5154499;27;20050;-75
2021/12/07 02:02:10;;;;;;;32.00;18.45;;;1.50;99.90;;;;;;5154094;27;20066;-73
2021/12/07 02:04:37;;;;;;;31.08;20.55;;;1.50;99.90;;;;;;5135687;27;20383;-75
2021/12/07 02:07:04;;;;;;;29.15;19.30;;;1.50;99.90;;;;;;5154002;27;20046;-73
2021/12/07 02:09:30;;;;;;;28.98;18.60;;;1.50;99.90;;;;;;5133846;27;20047;-75
2021/12/07 02:12:00;;;;;;;29.95;18.80;;;1.50;99.90;;;;;;5115872;27;20108;-75
2021/12/07 02:14:27;;;;;;;32.42;19.58;;;1.50;99.90;;;;;;5152244;27;20121;-75
2021/12/07 02:16:56;;;;;;;29.27;18.73;;;1.50;99.90;;;;;;5136339;27;20055;-75
2021/12/07 02:19:24;;;;;;;29.08;18.10;;;1.50;99.90;;;;;;5153282;27;20045;-75
2021/12/07 02:21:52;;;;;;;29.38;19.45;;;1.50;99.90;;;;;;5154477;27;20046;-76
2021/12/07 02:24:18;;;;;;;27.25;17.92;;;1.40;99.90;;;;;;5153239;27;20047;-75
2021/12/07 02:26:44;;;;;;;27.92;18.25;;;1.40;99.90;;;;;;5153762;27;20077;-75
2021/12/07 02:29:10;;;;;;;28.05;19.02;;;1.40;99.90;;;;;;5153853;27;20085;-74
2021/12/07 02:31:36;;;;;;;28.58;18.20;;;1.40;99.90;;;;;;5154013;27;20054;-75
2021/12/07 02:34:03;;;;;;;27.55;18.25;;;1.40;99.90;;;;;;5135970;27;20081;-76
2021/12/07 02:36:29;;;;;;;27.90;18.75;;;1.40;99.90;;;;;;5152642;27;20058;-75
2021/12/07 02:38:55;;;;;;;29.48;19.13;;;1.40;99.90;;;;;;5154379;27;20115;-76
2021/12/07 02:41:21;;;;;;;29.40;19.63;;;1.40;99.90;;;;;;5152948;27;20047;-75
2021/12/07 02:43:47;;;;;;;28.83;19.35;;;1.40;99.90;;;;;;5135598;27;20106;-75
2021/12/07 02:46:13;;;;;;;29.83;19.67;;;1.40;99.90;;;;;;5152626;27;20049;-75
2021/12/07 02:48:39;;;;;;;30.48;20.27;;;1.40;99.90;;;;;;5153506;27;20046;-75
2021/12/07 02:51:05;;;;;;;28.10;19.48;;;1.40;99.90;;;;;;5154191;27;20486;-76
2021/12/07 02:53:36;;;;;;;30.80;21.05;;;1.40;99.90;;;;;;5153277;27;20047;-75
2021/12/07 02:56:03;;;;;;;;;;;1.40;99.90;;;;;;5154259;27;20039;-75
2021/12/07 02:58:28;;;;;;;30.92;20.77;;;1.30;99.90;;;;;;5134713;27;19919;-75
2021/12/07 03:01:05;;;;;;;32.03;21.02;;;1.40;99.90;;;;;;5153870;27;20083;-75
2021/12/07 03:03:35;;;;;;;30.60;21.45;;;1.30;99.90;;;;;;5153128;27;20042;-75
2021/12/07 03:06:25;;;;;;;31.70;20.45;;;1.40;99.90;;;;;;5136054;27;20129;-75
2021/12/07 03:28:07;;;;;;;33.40;22.05;;;1.50;99.90;;;;;;5157440;27;20055;-75
2021/12/07 03:30:34;;;;;;;33.55;21.83;;;1.60;99.90;;;;;;5156791;27;20501;-75
2021/12/07 03:33:00;;;;;;;33.38;21.90;;;1.60;99.90;;;;;;5138750;27;20035;-74
2021/12/07 03:35:26;;;;;;;36.20;23.52;;;1.60;99.90;;;;;;5138579;27;20065;-75
2021/12/07 03:37:53;;;;;;;31.92;21.75;;;1.60;99.90;;;;;;5157194;27;20050;-74
2021/12/07 03:40:19;;;;;;;33.92;21.98;;;1.60;99.90;;;;;;5156317;27;20043;-74
2021/12/07 03:42:45;;;;;;;34.13;21.88;;;1.60;99.90;;;;;;5157249;27;20046;-74
2021/12/07 03:45:11;;;;;;;35.38;22.27;;;1.60;99.90;;;;;;5157421;27;20038;-75
2021/12/07 03:47:39;;;;;;;37.00;23.15;;;1.60;99.90;;;;;;5138641;27;20058;-75
2021/12/07 03:50:07;;;;;;;38.97;23.08;;;1.60;99.90;;;;;;5156327;27;20411;-75
2021/12/07 03:52:33;;;;;;;36.13;22.95;;;1.60;99.90;;;;;;5156735;27;20153;-75
2021/12/07 03:54:59;;;;;;;37.10;22.60;;;1.60;99.90;;;;;;5156877;27;20039;-75
2021/12/07 03:57:25;;;;;;;37.42;23.27;;;1.70;99.90;;;;;;5156591;27;20045;-75
2021/12/07 03:59:50;;;;;;;37.78;23.42;;;1.70;99.90;;;;;;5138561;27;20122;-75
2021/12/07 04:02:16;;;;;;;37.22;22.65;;;1.70;99.90;;;;;;5155803;27;20054;-74
2021/12/07 04:04:42;;;;;;;37.25;23.02;;;1.70;99.90;;;;;;5156398;27;20070;-75
2021/12/07 04:07:08;;;;;;;35.75;22.23;;;1.70;99.90;;;;;;5157086;27;20051;-75
2021/12/07 04:09:34;;;;;;;38.03;23.25;;;1.70;99.90;;;;;;5155995;27;20043;-75
2021/12/07 04:12:00;;;;;;;38.97;22.77;;;1.60;99.90;;;;;;5156146;27;20039;-75
2021/12/07 04:14:26;;;;;;;38.42;22.90;;;1.60;99.90;;;;;;5156167;27;20049;-75
2021/12/07 04:16:52;;;;;;;35.22;21.95;;;1.60;99.90;;;;;;5156827;27;20121;-75
2021/12/07 04:19:18;;;;;;;33.67;21.20;;;1.50;99.90;;;;;;5137086;27;20053;-74
2021/12/07 04:21:43;;;;;;;38.08;22.40;;;1.40;99.90;;;;;;5155779;27;20066;-75
2021/12/07 04:24:09;;;;;;;37.00;22.42;;;1.40;99.90;;;;;;5156289;27;20130;-75
2021/12/07 04:26:36;;;;;;;40.88;22.73;;;1.40;99.90;;;;;;5156036;27;20042;-74
2021/12/07 04:29:02;;;;;;;40.10;22.38;;;1.30;99.90;;;;;;5156281;27;20403;-75
2021/12/07 04:31:28;;;;;;;38.40;23.00;;;1.30;99.90;;;;;;5120641;27;20045;-74
2021/12/07 04:33:53;;;;;;;40.85;23.42;;;1.20;99.90;;;;;;5155692;27;20117;-75
2021/12/07 04:36:19;;;;;;;40.58;23.52;;;1.30;99.90;;;;;;5137607;27;20158;-74
2021/12/07 04:38:45;;;;;;;44.28;24.23;;;1.30;99.90;;;;;;5155839;27;20046;-75
2021/12/07 04:41:11;;;;;;;42.10;23.15;;;1.20;99.90;;;;;;5156130;27;20399;-74
2021/12/07 04:43:39;;;;;;;40.65;23.85;;;1.30;99.90;;;;;;5148870;27;20039;-74
2021/12/07 04:46:34;;;;;;;39.65;23.05;;;1.20;99.90;;;;;;5155900;27;20503;-75
2021/12/07 04:49:53;;;;;;;44.85;24.08;;;1.30;99.90;;;;;;5154729;27;20058;-75
2021/12/07 04:59:56;;;;;;;47.92;24.45;;;1.10;99.90;;;;;;5135307;27;20121;-76
2021/12/07 05:02:22;;;;;;;43.60;24.67;;;1.10;99.90;;;;;;5116920;27;20491;-74
2021/12/07 05:04:48;;;;;;;44.28;23.67;;;1.10;99.90;;;;;;5153205;27;20498;-77
2021/12/07 05:07:26;;;;;;;47.88;24.52;;;1.20;99.90;;;;;;5155510;27;20042;-75
2021/12/07 05:10:11;;;;;;;50.25;26.42;;;1.10;99.90;;;;;;5137673;27;20249;-75
2021/12/07 05:12:55;;;;;;;50.05;25.52;;;1.10;99.90;;;;;;5155209;27;20050;-75
2021/12/07 05:15:54;;;;;;;50.50;26.20;;;1.10;99.90;;;;;;5154820;27;20039;-75
2021/12/07 05:37:54;;;;;;;53.35;25.50;;;1.10;99.90;;;;;;5136197;27;20051;-75
2021/12/07 05:40:21;;;;;;;54.08;26.80;;;1.10;99.90;;;;;;5155227;27;20125;-76
2021/12/07 05:42:48;;;;;;;46.88;24.23;;;1.10;99.90;;;;;;5154599;27;20046;-75
2021/12/07 05:45:18;;;;;;;48.83;24.95;;;1.10;99.90;;;;;;5155283;27;20437;-76
2021/12/07 05:47:44;;;;;;;52.58;25.60;;;1.10;99.90;;;;;;5154568;27;20107;-76
2021/12/07 05:50:13;;;;;;;55.58;25.48;;;1.10;99.90;;;;;;5154772;27;20065;-75
2021/12/07 05:52:38;;;;;;;51.08;25.10;;;1.10;99.90;;;;;;5134991;27;20050;-75
2021/12/07 05:55:05;;;;;;;54.97;25.75;;;1.10;99.90;;;;;;5134138;27;20043;-76
2021/12/07 05:57:31;;;;;;;54.08;24.52;;;1.10;99.90;;;;;;5115544;27;20122;-75
2021/12/07 05:59:57;;;;;;;46.63;24.52;;;1.10;99.90;;;;;;5134060;27;20470;-76
2021/12/07 06:02:22;;;;;;;51.15;24.27;;;1.20;99.90;;;;;;5134093;27;20043;-76
2021/12/07 06:04:48;;;;;;;51.30;24.30;;;1.10;99.90;;;;;;5152843;27;20179;-76
2021/12/07 06:07:14;;;;;;;48.72;23.48;;;1.10;99.90;;;;;;5154664;27;20484;-76
2021/12/07 06:09:39;;;;;;;49.08;23.58;;;1.10;99.90;;;;;;5154083;27;20138;-75
2021/12/07 06:12:06;;;;;;;49.95;23.77;;;1.10;99.90;;;;;;5154854;27;20503;-75
2021/12/07 06:14:35;;;;;;;52.97;24.02;;;1.10;99.90;;;;;;5154208;27;20034;-74
2021/12/07 06:17:01;;;;;;;49.40;23.98;;;1.10;99.90;;;;;;5154121;27;20084;-76
2021/12/07 06:19:27;;;;;;;50.33;24.33;;;1.10;99.90;;;;;;5154492;27;20047;-77
2021/12/07 06:21:54;;;;;;;54.20;24.88;;;1.10;99.90;;;;;;5153904;27;20515;-76
2021/12/07 06:24:20;;;;;;;50.15;24.83;;;1.10;99.90;;;;;;5154141;27;20452;-76
2021/12/07 06:26:46;;;;;;;51.28;24.30;;;1.20;99.90;;;;;;5153810;27;20038;-77
2021/12/07 06:29:12;;;;;;;50.58;24.05;;;1.10;99.90;;;;;;5154276;27;20084;-77
2021/12/07 06:31:37;;;;;;;52.97;24.77;;;1.10;99.90;;;;;;5153141;27;20039;-76
2021/12/07 06:34:03;;;;;;;51.55;23.77;;;1.10;99.90;;;;;;5154318;27;20050;-77
2021/12/07 06:36:29;;;;;;;50.42;23.33;;;1.10;99.90;;;;;;5135294;27;20085;-77
2021/12/07 06:38:55;;;;;;;55.63;25.15;;;1.10;99.90;;;;;;5153649;27;20047;-77
2021/12/07 06:41:21;;;;;;;53.45;24.48;;;1.10;99.90;;;;;;5153898;27;20055;-77
2021/12/07 06:43:47;;;;;;;57.70;24.60;;;1.10;99.90;;;;;;5158296;27;20107;-77
2021/12/07 06:46:13;;;;;;;49.58;23.85;;;1.10;99.90;;;;;;5160380;27;20042;-77
2021/12/07 06:48:39;;;;;;;55.90;25.50;;;1.10;99.90;;;;;;5160295;27;20089;-76
2021/12/07 06:51:05;;;;;;;51.47;23.73;;;1.10;99.90;;;;;;5161323;27;20049;-77
2021/12/07 06:53:35;;;;;;;54.97;25.25;;;1.20;99.90;;;;;;5142785;27;20391;-77
2021/12/07 06:56:06;;;;;;;58.13;25.55;;;1.10;99.90;;;;;;5161213;27;20043;-76
2021/12/07 06:58:32;;;;;;;57.30;25.05;;;1.10;99.90;;;;;;5160316;27;20034;-77
2021/12/07 07:00:59;;;;;;;53.08;24.92;;;1.20;99.90;;;;;;5160405;27;20042;-76
2021/12/07 07:03:25;;;;;;;53.85;24.77;;;1.20;99.90;;;;;;5160743;27;20190;-77
2021/12/07 07:05:50;;;;;;;56.85;24.05;;;1.10;99.90;;;;;;5159684;27;20534;-76
2021/12/07 07:08:16;;;;;;;51.33;23.33;;;1.10;99.90;;;;;;5160927;27;20038;-76
2021/12/07 07:10:42;;;;;;;52.90;23.80;;;1.10;99.90;;;;;;5141798;27;20179;-76
2021/12/07 07:13:08;;;;;;;50.03;24.02;;;1.10;99.90;;;;;;5160891;27;20046;-76
2021/12/07 07:15:35;;;;;;;51.72;23.98;;;1.00;99.90;;;;;;5160316;27;20504;-77
2021/12/07 07:18:01;;;;;;;51.25;24.30;;;1.00;99.90;;;;;;5160296;27;20150;-76
2021/12/07 07:20:27;;;;;;;53.08;24.25;;;1.00;99.90;;;;;;5160166;27;20392;-76
2021/12/07 07:22:53;;;;;;;57.80;25.10;;;1.00;99.90;;;;;;5159759;27;20470;-76
2021/12/07 07:25:19;;;;;;;52.72;25.40;;;1.00;99.90;;;;;;5160934;27;20363;-76
2021/12/07 07:27:46;;;;;;;59.30;25.50;;;1.10;99.90;;;;;;5159704;27;20083;-77
2021/12/07 07:30:15;;;;;;;59.97;25.15;;;1.10;99.90;;;;;;5159996;27;20050;-77
2021/12/07 07:32:41;;;;;;;56.92;25.63;;;1.10;99.90;;;;;;5160112;27;20042;-76
2021/12/07 07:35:09;;;;;;;55.88;24.23;;;1.10;99.90;;;;;;5160855;27;20506;-77
2021/12/07 07:37:35;;;;;;;54.08;24.65;;;1.10;99.90;;;;;;5144319;27;20039;-77
2021/12/07 07:40:01;;;;;;;53.08;24.85;;;1.10;99.90;;;;;;5139713;27;20039;-77
2021/12/07 07:42:27;;;;;;;58.40;25.23;;;1.20;99.90;;;;;;5140195;27;20448;-77
2021/12/07 07:44:52;;;;;;;58.17;24.75;;;1.20;99.90;;;;;;5121455;27;20047;-76
2021/12/07 07:47:18;;;;;;;58.97;24.23;;;1.20;99.90;;;;;;5152547;27;20054;-77
2021/12/07 07:49:44;;;;;;;57.22;24.77;;;1.30;99.90;;;;;;5160058;27;20061;-77
2021/12/07 07:52:09;;;;;;;59.92;23.65;;;1.30;99.90;;;;;;5142289;27;20046;-76
2021/12/07 07:54:35;;;;;;;56.97;23.92;;;1.30;99.90;;;;;;5159386;27;20038;-76
2021/12/07 07:57:01;;;;;;;54.78;23.88;;;1.30;99.90;;;;;;5156548;27;20046;-76
2021/12/07 07:59:26;;;;;;;58.60;24.52;;;1.40;99.90;;;;;;5157447;27;20046;-76
2021/12/07 08:01:52;;;;;;;56.53;23.77;;;1.40;99.90;;;;;;5148380;27;20062;-76
2021/12/07 08:04:18;;;;;;;55.42;23.00;;;1.40;99.90;;;;;;5130143;27;20495;-77
2021/12/07 08:06:44;;;;;;;51.28;23.13;;;1.50;99.90;;;;;;5149730;27;20050;-76
2021/12/07 08:09:09;;;;;;;59.15;22.83;;;1.50;99.90;;;;;;5150203;27;20049;-79
2021/12/07 08:11:36;;;;;;;52.55;22.08;;;1.50;99.90;;;;;;5133817;27;20039;-80
2021/12/07 08:14:02;;;;;;;50.15;21.10;;;1.50;99.90;;;;;;5112701;27;20043;-80
2021/12/07 08:16:28;;;;;;;54.28;22.25;;;1.40;99.90;;;;;;5113086;27;20051;-79
2021/12/07 08:18:54;;;;;;;53.25;21.35;;;1.50;99.90;;;;;;5111334;27;20082;-79
2021/12/07 08:21:21;;;;;;;47.25;19.50;;;1.50;99.90;;;;;;5147481;27;20074;-80
2021/12/07 08:23:47;;;;;;;50.83;20.20;;;1.50;99.90;;;;;;5146586;27;20406;-76
2021/12/07 08:26:17;;;;;;;47.08;19.95;;;1.60;99.90;;;;;;5130906;27;20047;-79
2021/12/07 08:28:43;;;;;;;48.67;19.75;;;1.60;99.90;;;;;;5095389;27;20440;-76
2021/12/07 08:31:09;;;;;;;44.40;19.77;;;1.60;99.90;;;;;;5140726;27;20039;-79
2021/12/07 08:33:35;;;;;;;47.20;20.25;;;1.70;99.90;;;;;;5133001;27;20042;-77
2021/12/07 08:36:02;;;;;;;45.33;19.75;;;1.70;99.90;;;;;;5150561;27;20041;-80
2021/12/07 08:38:28;;;;;;;52.65;22.05;;;1.80;99.90;;;;;;5151570;27;20049;-79
2021/12/07 08:40:55;;;;;;;45.15;19.98;;;1.80;99.90;;;;;;5149464;27;20043;-79
2021/12/07 08:43:26;;;;;;;51.65;20.88;;;1.80;99.90;;;;;;5151590;27;20250;-79
2021/12/07 08:45:53;;;;;;;47.83;20.88;;;1.80;99.90;;;;;;5121240;27;20046;-80
2021/12/07 08:48:20;;;;;;;43.28;20.25;;;1.90;99.90;;;;;;5111782;27;20451;-79
2021/12/07 08:50:47;;;;;;;46.10;20.17;;;1.90;99.90;;;;;;5111572;27;20047;-76
2021/12/07 08:53:15;;;;;;;45.70;21.50;;;1.90;99.90;;;;;;5130455;27;20047;-79
2021/12/07 09:01:16;;;;;;;43.10;20.25;;;2.00;99.90;;;;;;5150781;27;20051;-80
2021/12/07 09:03:42;;;;;;;44.78;20.85;;;2.10;99.90;;;;;;5150881;27;20082;-79
2021/12/07 09:06:08;;;;;;;44.03;20.15;;;2.10;99.90;;;;;;5149000;27;20082;-78
2021/12/07 09:08:35;;;;;;;43.97;20.67;;;2.10;99.90;;;;;;5150899;27;20046;-79
2021/12/07 09:11:01;;;;;;;42.15;19.42;;;2.10;99.90;;;;;;5133753;27;20112;-80
2021/12/07 09:13:28;;;;;;;45.85;20.15;;;2.20;99.90;;;;;;5137337;27;20042;-80
2021/12/07 09:15:55;;;;;;;46.67;19.75;;;2.20;99.90;;;;;;5151732;27;20043;-80
2021/12/07 09:18:21;;;;;;;40.55;20.17;;;2.20;99.90;;;;;;5134898;27;20047;-80
2021/12/07 09:20:47;;;;;;;45.63;19.75;;;2.30;99.90;;;;;;5138708;27;20411;-80
2021/12/07 09:23:13;;;;;;;43.47;19.45;;;2.40;99.90;;;;;;5123998;27;20046;-80
2021/12/07 09:25:39;;;;;;;43.25;20.30;;;2.40;99.90;;;;;;5134834;27;20035;-80
2021/12/07 09:28:05;;;;;;;44.97;20.92;;;2.40;99.90;;;;;;5124672;27;20058;-80
2021/12/07 09:30:31;;;;;;;40.40;19.55;;;2.40;99.90;;;;;;5153144;27;20035;-80
2021/12/07 09:32:57;;;;;;;40.38;19.02;;;2.50;99.90;;;;;;5153792;27;20069;-79
2021/12/07 09:35:24;;;;;;;39.97;18.35;;;2.50;99.90;;;;;;5154469;27;20035;-80
2021/12/07 09:37:52;;;;;;;34.55;16.77;;;2.50;99.90;;;;;;5121208;27;20510;-79
2021/12/07 09:40:19;;;;;;;40.38;18.05;;;2.50;99.90;;;;;;5146919;27;20034;-80
2021/12/07 09:42:46;;;;;;;33.97;17.65;;;2.50;99.90;;;;;;5153925;27;20471;-79
2021/12/07 09:45:14;;;;;;;41.28;17.55;;;2.50;99.90;;;;;;5153587;27;20034;-80
2021/12/07 09:47:40;;;;;;;43.47;18.48;;;2.70;99.90;;;;;;5153851;27;20146;-80
2021/12/07 09:50:08;;;;;;;46.92;18.40;;;2.70;99.90;;;;;;5153948;27;20125;-80
2021/12/07 09:52:34;;;;;;;43.15;17.85;;;2.80;99.90;;;;;;5136374;27;20054;-80
2021/12/07 09:55:00;;;;;;;38.38;17.17;;;2.90;99.90;;;;;;5153874;27;20551;-80
2021/12/07 09:57:25;;;;;;;34.63;16.63;;;3.00;99.90;;;;;;5136482;27;20107;-80
2021/12/07 09:59:51;;;;;;;31.85;15.73;;;3.00;99.90;;;;;;5154114;27;20391;-80
2021/12/07 10:02:18;;;;;;;35.97;15.13;;;3.10;99.90;;;;;;5135986;27;20050;-78
2021/12/07 10:04:45;;;;;;;32.90;13.70;;;3.10;99.90;;;;;;5154754;27;20444;-82
2021/12/07 10:07:10;;;;;;;30.85;13.38;;;3.10;99.90;;;;;;5135836;27;20044;-79
2021/12/07 10:09:37;;;;;;;26.88;12.05;;;3.30;99.90;;;;;;5154649;27;20050;-82
2021/12/07 10:12:05;;;;;;;25.65;12.63;;;3.30;99.90;;;;;;5134771;27;20047;-81
2021/12/07 10:14:38;;;;;;;20.33;12.18;;;3.20;99.90;;;;;;5154470;27;20058;-80
2021/12/07 10:17:04;;;;;;;26.42;12.27;;;3.10;99.90;;;;;;5153629;27;20079;-80
2021/12/07 10:19:34;;;;;;;26.77;13.70;;;3.20;99.90;;;;;;5135789;27;20543;-80
2021/12/07 10:22:13;;;;;;;25.98;12.75;;;3.20;99.90;;;;;;5118724;27;20047;-80
2021/12/07 10:24:45;;;;;;;28.80;13.32;;;3.20;99.90;;;;;;5154487;27;20083;-80
2021/12/07 10:27:11;;;;;;;31.30;13.57;;;3.30;99.90;;;;;;5134876;27;20487;-80
2021/12/07 10:29:39;;;;;;;29.92;13.15;;;3.40;99.90;;;;;;5154379;27;20058;-80
2021/12/07 10:32:07;;;;;;;29.27;13.48;;;3.40;99.90;;;;;;5153758;27;20043;-79
2021/12/07 10:34:40;;;;;;;28.65;13.45;;;3.50;99.90;;;;;;5135757;27;20050;-80
2021/12/07 10:37:10;;;;;;;32.28;14.60;;;3.70;99.90;;;;;;5153879;27;20121;-80
2021/12/07 10:39:39;;;;;;;30.20;15.25;;;3.80;99.90;;;;;;5154477;27;20043;-80
2021/12/07 10:42:13;;;;;;;27.48;13.27;;;3.90;99.90;;;;;;5134392;27;20077;-78
2021/12/07 10:44:40;;;;;;;24.48;11.90;;;4.10;99.90;;;;;;5154149;27;20034;-79
2021/12/07 10:47:12;;;;;;;20.77;12.20;;;4.30;99.90;;;;;;5153326;27;20494;-73
2021/12/07 10:49:57;;;;;;;24.55;11.77;;;4.40;99.90;;;;;;5154423;27;20068;-79
2021/12/07 10:52:28;;;;;;;20.65;11.50;;;4.40;99.90;;;;;;5153505;27;20505;-78
2021/12/07 10:54:58;;;;;;;19.45;10.00;;;4.50;99.90;;;;;;5152713;27;20074;-78
2021/12/07 10:57:28;;;;;;;18.95;10.88;;;4.50;99.90;;;;;;5141050;27;20136;-79
2021/12/07 10:59:58;;;;;;;19.30;10.00;;;4.50;99.90;;;;;;5140380;27;20400;-79
2021/12/07 11:02:30;;;;;;;22.77;10.43;;;4.40;99.90;;;;;;5147089;27;20046;-79
2021/12/07 11:04:56;;;;;;;22.92;10.15;;;4.40;99.90;;;;;;5115970;28;20039;-79
2021/12/07 11:07:25;;;;;;;20.13;10.45;;;4.40;99.90;;;;;;5121517;27;20047;-79
2021/12/07 11:10:00;;;;;;;23.30;11.27;;;4.40;99.90;;;;;;5118813;27;20071;-79
2021/12/07 11:12:29;;;;;;;21.90;11.18;;;4.50;99.90;;;;;;5129470;28;20078;-79
2021/12/07 11:15:00;;;;;;;22.60;11.05;;;4.60;99.90;;;;;;5143339;27;20039;-80
2021/12/07 11:17:33;;;;;;;21.00;11.05;;;4.80;99.90;;;;;;5139563;27;20053;-80
2021/12/07 11:20:01;;;;;;;18.67;9.80;;;4.90;99.90;;;;;;5134969;27;20047;-79
2021/12/07 11:22:33;;;;;;;18.90;10.02;;;5.00;99.90;;;;;;5147761;27;20047;-79
2021/12/07 11:25:02;;;;;;;20.70;10.07;;;5.00;99.90;;;;;;5143490;27;20042;-79
2021/12/07 11:30:20;;;;;;;17.17;9.43;;;5.10;99.90;;;;;;5139184;27;20042;-79
2021/12/07 11:32:56;;;;;;;17.15;9.05;;;5.20;99.90;;;;;;5149206;27;20071;-79
2021/12/07 11:35:27;;;;;;;20.70;9.98;;;5.20;99.90;;;;;;5150264;27;20070;-80
2021/12/07 11:37:56;;;;;;;15.85;9.50;;;5.30;99.90;;;;;;5122199;27;20115;-80
2021/12/07 11:40:28;;;;;;;20.63;10.63;;;5.40;99.90;;;;;;5138810;27;20078;-80
2021/12/07 11:42:54;;;;;;;17.10;9.40;;;5.50;99.90;;;;;;5129234;27;20047;-80
2021/12/07 11:45:31;;;;;;;13.63;8.23;;;5.60;99.90;;;;;;5131451;27;20129;-80
2021/12/07 11:48:01;;;;;;;16.92;8.82;;;5.70;99.90;;;;;;5140285;27;20054;-75
2021/12/07 11:50:47;;;;;;;17.17;8.68;;;5.60;99.90;;;;;;5115235;27;20075;-79
2021/12/07 11:53:25;;;;;;;15.80;8.52;;;5.60;99.90;;;;;;5148501;27;20046;-79
2021/12/07 11:55:56;;;;;;;16.33;8.82;;;5.60;99.90;;;;;;5139990;27;20039;-79
2021/12/07 11:58:22;;;;;;;15.80;8.07;;;5.60;99.90;;;;;;5151582;27;20047;-80
2021/12/07 12:00:55;;;;;;;17.00;8.57;;;5.60;99.90;;;;;;5150539;27;20471;-80
2021/12/07 12:03:25;;;;;;;19.00;8.57;;;5.60;99.90;;;;;;5144293;27;20054;-79
2021/12/07 12:05:52;;;;;;;13.48;7.25;;;5.60;99.90;;;;;;5156443;27;20043;-79
2021/12/07 12:08:20;;;;;;;14.27;8.07;;;5.50;99.90;;;;;;5140739;27;20130;-79
2021/12/07 12:11:08;;;;;;;18.17;8.32;;;5.50;99.90;;;;;;5138793;27;20391;-79
2021/12/07 12:14:04;;;;;;;14.82;8.65;;;5.60;99.90;;;;;;5140811;27;20066;-80
2021/12/07 12:16:49;;;;;;;16.20;8.60;;;5.40;99.90;;;;;;5138832;27;20034;-80
2021/12/07 12:19:20;;;;;;;18.60;8.30;;;5.50;99.90;;;;;;5148709;27;20050;-79
2021/12/07 12:21:58;;;;;;;14.70;8.43;;;5.50;99.90;;;;;;5157134;27;20043;-79
2021/12/07 12:24:47;;;;;;;18.13;8.63;;;5.40;99.90;;;;;;5123178;27;20524;-80
2021/12/07 12:27:16;;;;;;;15.50;8.23;;;5.40;99.90;;;;;;5144001;27;20083;-80
2021/12/07 12:29:45;;;;;;;18.33;8.75;;;5.50;99.90;;;;;;5152793;27;20494;-81
2021/12/07 12:32:11;;;;;;;19.20;9.77;;;5.50;99.90;;;;;;5121137;27;20065;-79
2021/12/07 12:34:47;;;;;;;16.80;9.30;;;5.40;99.90;;;;;;5149564;27;20403;-79
2021/12/07 12:37:22;;;;;;;19.27;9.43;;;5.50;99.90;;;;;;5135630;27;20039;-80
2021/12/07 12:40:06;;;;;;;18.17;9.23;;;5.40;99.90;;;;;;5136283;27;20050;-80
2021/12/07 12:42:31;;;;;;;17.17;8.88;;;5.40;99.90;;;;;;5149086;27;20046;-80
2021/12/07 12:45:03;;;;;;;18.52;8.88;;;5.40;99.90;;;;;;5146363;27;20042;-81
2021/12/07 12:47:31;;;;;;;17.60;9.82;;;5.40;99.90;;;;;;5137681;27;20336;-80
2021/12/07 12:50:11;;;;;;;14.27;9.98;;;5.40;99.90;;;;;;5138979;27;20058;-80
2021/12/07 12:52:58;;;;;;;16.50;10.13;;;5.40;99.90;;;;;;5136733;27;20487;-80
2021/12/07 12:55:45;;;;;;;20.23;10.45;;;5.40;99.90;;;;;;5155869;27;20035;-79
2021/12/07 12:58:20;;;;;;;18.67;10.55;;;5.40;99.90;;;;;;5138695;27;20487;-79
2021/12/07 13:01:10;;;;;;;19.60;10.55;;;5.40;99.90;;;;;;5147565;27;20092;-80
2021/12/07 13:03:45;;;;;;;20.80;11.18;;;5.40;99.90;;;;;;5151311;27;20049;-80
2021/12/07 13:06:15;;;;;;;17.70;10.70;;;5.30;99.90;;;;;;5116593;27;20042;-79
2021/12/07 13:08:57;;;;;;;19.48;10.80;;;5.30;99.90;;;;;;5135495;27;20051;-80
2021/12/07 13:11:38;;;;;;;20.75;11.05;;;5.30;99.90;;;;;;5148710;27;20039;-79
2021/12/07 13:14:13;;;;;;;18.02;11.13;;;5.20;99.90;;;;;;5120652;27;20107;-80
2021/12/07 13:17:16;;;;;;;19.40;11.80;;;5.20;99.90;;;;;;5148572;27;20035;-80
2021/12/07 13:20:04;;;;;;;22.50;12.65;;;5.20;99.90;;;;;;5129335;27;20046;-79
2021/12/07 13:22:47;;;;;;;24.10;11.35;;;5.20;99.90;;;;;;5105652;27;20050;-80
2021/12/07 13:25:15;;;;;;;18.38;11.60;;;5.20;99.90;;;;;;5142832;27;20059;-78
2021/12/07 13:28:10;;;;;;;20.17;11.60;;;5.20;99.90;;;;;;5151522;27;20074;-79
2021/12/07 13:30:45;;;;;;;19.15;11.52;;;5.10;99.90;;;;;;5113946;27;20126;-80
2021/12/07 13:33:22;;;;;;;20.90;12.10;;;5.10;99.90;;;;;;5143348;27;20079;-79
2021/12/07 13:35:50;;;;;;;22.00;13.27;;;5.10;99.90;;;;;;5151817;27;20078;-79
2021/12/07 13:38:29;;;;;;;18.92;11.52;;;5.10;99.90;;;;;;5138947;27;20066;-79
2021/12/07 13:41:13;;;;;;;20.00;11.90;;;5.10;99.90;;;;;;5155576;27;20054;-79
2021/12/07 13:43:41;;;;;;;20.73;11.48;;;5.10;99.90;;;;;;5139099;27;20058;-80
2021/12/07 13:46:11;;;;;;;20.92;12.30;;;5.10;99.90;;;;;;5151636;27;20139;-79
2021/12/07 13:48:37;;;;;;;18.85;12.30;;;5.00;99.90;;;;;;5122841;27;20049;-79
2021/12/07 13:51:04;;;;;;;19.55;11.40;;;5.00;99.90;;;;;;5144111;27;20050;-80
2021/12/07 13:53:30;;;;;;;20.63;11.52;;;5.00;99.90;;;;;;5135174;27;20043;-79
2021/12/07 13:55:56;;;;;;;21.75;11.23;;;5.00;99.90;;;;;;5152921;27;20039;-79
2021/12/07 13:58:22;;;;;;;22.58;11.57;;;5.00;99.90;;;;;;5135951;27;20499;-78
2021/12/07 14:00:47;;;;;;;24.80;11.77;;;4.90;99.90;;;;;;5155111;27;20046;-79
2021/12/07 14:03:19;;;;;;;25.60;12.90;;;4.90;99.90;;;;;;5124305;27;20077;-78
2021/12/07 14:05:45;;;;;;;22.33;13.02;;;4.90;99.90;;;;;;5151077;27;20462;-79
2021/12/07 14:08:13;;;;;;;24.83;12.73;;;4.90;99.90;;;;;;5137761;27;20122;-79
2021/12/07 14:10:53;;;;;;;21.48;11.30;;;4.80;99.90;;;;;;5146863;27;20043;-80
2021/12/07 14:13:20;;;;;;;16.83;11.23;;;4.80;99.90;;;;;;5147020;27;20039;-79
2021/12/07 14:15:48;;;;;;;21.15;10.50;;;4.80;99.90;;;;;;5137452;27;20522;-79
2021/12/07 14:18:23;;;;;;;23.08;11.57;;;4.70;99.90;;;;;;5150755;27;20051;-79
2021/12/07 14:20:54;;;;;;;22.48;11.95;;;4.70;99.90;;;;;;5143274;27;20095;-79
2021/12/07 14:23:40;;;;;;;19.25;11.98;;;4.60;99.90;;;;;;5140913;27;20058;-77